Time;durP1;ratioP1;P1;durP2;ratioP2;P2;SDS_P1;SDS_P2;PMS_P1;PMS_P2;Temp;Humidity;BMP_temperature;BMP_pressure;BME280_temperature;BME280_humidity;BME280_pressure;Samples;Min_cycle;Max_cycle;Signal;HPM_P1;HPM_P2
2022/09/17 00:01:42;;;;;;;0.93;0.52;;;;;;;14.07;79.66;98739.59;4975323;28;20049;-70
2022/09/17 00:04:11;;;;;;;0.52;0.52;;;;;;;14.04;79.80;98728.56;4975260;28;20449;-70
2022/09/17 00:06:40;;;;;;;1.53;1.23;;;;;;;13.95;79.94;98723.72;4974957;28;20041;-69
2022/09/17 00:09:09;;;;;;;0.80;0.73;;;;;;;13.91;80.02;98722.13;4974742;28;20039;-69
2022/09/17 00:11:41;;;;;;;0.32;0.32;;;;;;;13.85;80.39;98717.16;4974677;28;20051;-69
2022/09/17 00:14:14;;;;;;;0.57;0.57;;;;;;;13.82;80.72;98707.03;4974956;28;20134;-69
2022/09/17 00:16:45;;;;;;;0.40;0.40;;;;;;;13.79;80.89;98712.22;4975025;28;20055;-69
2022/09/17 00:19:17;;;;;;;0.50;0.50;;;;;;;13.82;81.03;98717.28;4974978;28;20512;-69
2022/09/17 00:21:46;;;;;;;0.95;0.85;;;;;;;13.81;80.96;98715.59;4975844;28;20051;-68
2022/09/17 00:24:17;;;;;;;2.72;1.10;;;;;;;13.82;80.86;98712.16;4974660;28;20134;-70
2022/09/17 00:26:46;;;;;;;0.32;0.32;;;;;;;13.78;80.69;98715.66;4974542;28;20053;-69
2022/09/17 00:29:16;;;;;;;;;;;;;;;13.82;81.00;98719.84;4974979;28;20077;-69
2022/09/17 00:31:45;;;;;;;;;;;;;;;13.87;80.82;98710.25;4974956;28;19977;-68
2022/09/17 00:34:13;;;;;;;0.30;0.30;;;;;;;13.84;80.76;98715.50;4974767;28;19926;-68
2022/09/17 00:36:43;;;;;;;0.57;0.57;;;;;;;13.82;80.60;98709.59;4974828;28;20043;-69
2022/09/17 00:39:14;;;;;;;0.50;0.50;;;;;;;13.83;80.32;98708.69;4974745;28;20150;-69
2022/09/17 00:41:43;;;;;;;0.52;0.52;;;;;;;13.83;79.70;98708.69;4974483;28;20055;-69
2022/09/17 00:44:34;;;;;;;0.50;0.50;;;;;;;13.75;79.92;98718.34;4974656;28;20584;-69
2022/09/17 00:47:04;;;;;;;0.40;0.40;;;;;;;13.80;79.65;98727.56;4974068;28;20055;-69
2022/09/17 00:49:33;;;;;;;0.60;0.50;;;;;;;13.77;79.32;98717.38;4974374;28;20137;-69
2022/09/17 00:52:08;;;;;;;0.40;0.40;;;;;;;13.84;78.73;98700.13;4974397;28;20047;-69
2022/09/17 00:54:41;;;;;;;0.75;0.75;;;;;;;13.88;78.80;98719.66;4974398;28;20293;-68
2022/09/17 00:57:10;;;;;;;1.17;1.08;;;;;;;13.85;78.18;98722.28;4974307;28;20058;-69
2022/09/17 00:59:39;;;;;;;0.35;0.35;;;;;;;13.83;78.29;98703.56;4974254;28;20146;-69
2022/09/17 01:02:09;;;;;;;0.43;0.43;;;;;;;13.84;77.84;98705.25;4974594;28;20421;-70
2022/09/17 01:04:38;;;;;;;0.50;0.50;;;;;;;13.89;77.63;98714.47;4974567;28;20114;-69
2022/09/17 01:07:25;;;;;;;0.40;0.40;;;;;;;13.91;77.97;98730.69;4974420;28;20573;-69
2022/09/17 01:09:57;;;;;;;0.40;0.40;;;;;;;13.88;77.17;98722.22;4978162;28;20054;-69
2022/09/17 01:12:45;;;;;;;0.50;0.50;;;;;;;13.80;77.61;98729.28;4977762;28;20046;-69
2022/09/17 01:15:27;;;;;;;0.40;0.40;;;;;;;13.77;77.48;98734.53;4978197;28;20448;-67
2022/09/17 01:18:12;;;;;;;0.45;0.45;;;;;;;13.74;77.53;98725.19;4977970;28;20049;-69
2022/09/17 01:21:21;;;;;;;0.30;0.30;;;;;;;13.69;77.98;98726.19;4977877;28;20501;-68
2022/09/17 01:24:17;;;;;;;0.38;0.38;;;;;;;13.60;78.16;98727.31;4977549;28;20494;-69
2022/09/17 01:27:15;;;;;;;0.68;0.60;;;;;;;13.59;78.11;98729.91;4960402;28;20401;-68
2022/09/17 01:30:07;;;;;;;0.40;0.40;;;;;;;13.54;78.21;98731.75;4975161;28;20050;-68
2022/09/17 01:32:43;;;;;;;0.63;0.52;;;;;;;13.51;78.21;98742.94;4977477;28;20061;-69
2022/09/17 01:35:21;;;;;;;0.50;0.50;;;;;;;13.54;77.81;98752.25;4977331;28;20051;-69
2022/09/17 01:38:00;;;;;;;0.40;0.40;;;;;;;13.53;77.80;98748.03;4977642;28;20050;-69
2022/09/17 01:40:37;;;;;;;0.55;0.55;;;;;;;13.52;77.32;98743.78;4977278;28;20129;-69
2022/09/17 01:43:12;;;;;;;0.30;0.30;;;;;;;13.51;77.32;98749.81;4977192;28;20046;-69
2022/09/17 01:45:47;;;;;;;1.00;0.60;;;;;;;13.58;77.31;98743.63;4977481;28;20050;-68
2022/09/17 01:48:19;;;;;;;1.38;1.27;;;;;;;13.54;77.53;98736.88;4976761;28;20062;-69
2022/09/17 01:50:54;;;;;;;0.40;0.40;;;;;;;13.55;77.42;98728.31;4977273;28;20042;-69
2022/09/17 01:53:27;;;;;;;0.75;0.70;;;;;;;13.58;77.41;98728.25;4977311;28;20078;-69
2022/09/17 01:55:59;;;;;;;0.65;0.65;;;;;;;13.51;77.55;98731.84;4977070;28;20601;-69
2022/09/17 01:58:31;;;;;;;0.88;0.85;;;;;;;13.44;77.24;98738.84;4976830;28;20067;-68
2022/09/17 02:01:03;;;;;;;0.43;0.43;;;;;;;13.46;77.56;98743.97;4975689;28;20055;-68
2022/09/17 02:03:39;;;;;;;1.30;0.38;;;;;;;13.51;77.19;98745.50;4976844;28;20051;-68
2022/09/17 02:06:13;;;;;;;0.40;0.40;;;;;;;13.55;77.17;98738.56;4977137;28;20055;-69
2022/09/17 02:08:49;;;;;;;0.40;0.40;;;;;;;13.60;76.91;98732.44;4976585;28;20497;-69
2022/09/17 02:11:19;;;;;;;0.40;0.40;;;;;;;13.60;76.87;98727.31;4959659;28;20408;-69
2022/09/17 02:13:54;;;;;;;0.50;0.50;;;;;;;13.58;76.89;98723.94;4976669;28;20046;-69
2022/09/17 02:16:26;;;;;;;0.63;0.50;;;;;;;13.56;76.91;98720.56;4976977;28;20047;-69
2022/09/17 02:19:02;;;;;;;0.40;0.40;;;;;;;13.56;76.83;98712.03;4976545;28;20070;-69
2022/09/17 02:21:39;;;;;;;0.32;0.32;;;;;;;13.57;76.92;98717.13;4976477;28;20130;-68
2022/09/17 02:24:17;;;;;;;0.85;0.63;;;;;;;13.58;76.64;98723.13;4977354;28;20066;-68
2022/09/17 02:26:53;;;;;;;0.50;0.50;;;;;;;13.52;76.86;98728.41;4977479;28;20073;-69
2022/09/17 02:29:29;;;;;;;0.55;0.55;;;;;;;13.32;76.83;98727.22;4976259;28;20046;-69
2022/09/17 02:31:58;;;;;;;0.30;0.30;;;;;;;13.27;77.36;98731.63;4976577;28;20047;-68
2022/09/17 02:34:28;;;;;;;0.30;0.30;;;;;;;13.10;77.12;98735.53;4976294;28;20613;-69
2022/09/17 02:36:58;;;;;;;0.50;0.50;;;;;;;13.00;77.49;98740.03;4976273;28;20452;-69
2022/09/17 02:39:28;;;;;;;0.77;0.75;;;;;;;12.99;77.96;98738.31;4958825;28;20043;-69
2022/09/17 02:42:06;;;;;;;1.02;0.98;;;;;;;12.92;77.88;98733.41;4976653;28;20039;-67
2022/09/17 02:44:54;;;;;;;0.60;0.60;;;;;;;12.89;77.89;98731.75;4976102;28;20051;-68
2022/09/17 02:47:37;;;;;;;0.40;0.40;;;;;;;12.78;78.56;98729.47;4975674;28;20046;-68
2022/09/17 02:50:18;;;;;;;13.48;1.00;;;;;;;12.90;78.79;98728.31;4976293;28;20039;-67
2022/09/17 02:53:05;;;;;;;0.40;0.40;;;;;;;12.84;78.74;98718.22;4975919;28;20078;-68
2022/09/17 02:55:42;;;;;;;2.20;0.85;;;;;;;12.87;79.02;98717.31;4975824;28;20054;-68
2022/09/17 02:58:22;;;;;;;0.47;0.47;;;;;;;12.82;79.29;98712.31;4976471;28;20094;-68
2022/09/17 03:00:52;;;;;;;0.63;0.60;;;;;;;12.71;79.14;98701.50;4976101;28;20448;-67
2022/09/17 03:03:23;;;;;;;;;;;;;;;12.73;79.32;98694.63;4976063;28;20051;-68
2022/09/17 03:05:54;;;;;;;1.05;0.68;;;;;;;12.72;79.22;98693.75;4975693;28;20399;-68
2022/09/17 03:08:29;;;;;;;0.30;0.30;;;;;;;12.73;79.29;98685.22;4975591;28;20045;-68
2022/09/17 03:10:58;;;;;;;0.40;0.40;;;;;;;12.70;79.13;98684.44;4975534;28;20043;-68
2022/09/17 03:13:26;;;;;;;0.43;0.43;;;;;;;12.68;79.56;98676.81;4975509;28;20133;-68
2022/09/17 03:15:55;;;;;;;0.20;0.20;;;;;;;12.67;79.94;98679.38;4975478;28;20101;-68
2022/09/17 03:18:24;;;;;;;0.38;0.38;;;;;;;12.68;79.70;98681.94;4975709;28;20050;-68
2022/09/17 03:20:54;;;;;;;0.95;0.95;;;;;;;12.66;79.84;98688.81;4975329;28;20050;-68
2022/09/17 03:23:23;;;;;;;0.40;0.40;;;;;;;12.65;80.17;98697.38;4976098;28;20049;-67
2022/09/17 03:25:52;;;;;;;0.80;0.75;;;;;;;12.68;79.83;98693.88;4975279;28;20511;-67
2022/09/17 03:28:20;;;;;;;0.85;0.77;;;;;;;12.67;79.85;98694.75;4975179;28;20035;-68
2022/09/17 03:30:49;;;;;;;0.50;0.50;;;;;;;12.62;79.91;98692.31;4975045;28;20043;-68
2022/09/17 03:33:18;;;;;;;0.40;0.40;;;;;;;12.56;79.62;98681.38;4975146;28;20047;-68
2022/09/17 03:35:47;;;;;;;0.50;0.50;;;;;;;12.52;79.72;98683.19;4975204;28;20050;-67
2022/09/17 03:38:17;;;;;;;0.30;0.30;;;;;;;12.54;79.05;98688.28;4975441;28;20077;-67
2022/09/17 03:40:57;;;;;;;1.10;0.77;;;;;;;12.53;79.09;98686.56;4975061;28;20283;-69
2022/09/17 03:43:27;;;;;;;0.40;0.40;;;;;;;12.60;78.80;98694.06;4975053;28;20051;-69
2022/09/17 03:45:56;;;;;;;1.60;1.05;;;;;;;12.58;78.90;98689.88;4975622;28;20495;-68
2022/09/17 03:48:24;;;;;;;0.30;0.30;;;;;;;12.53;78.94;98684.03;4974596;28;20051;-68
2022/09/17 03:50:53;;;;;;;0.30;0.30;;;;;;;12.49;79.22;98680.72;4975224;28;20751;-69
2022/09/17 03:53:23;;;;;;;0.25;0.25;;;;;;;12.52;78.88;98677.25;4974813;28;20065;-69
2022/09/17 03:55:52;;;;;;;0.35;0.35;;;;;;;12.53;79.15;98676.34;4974883;28;20493;-68
2022/09/17 03:58:20;;;;;;;0.30;0.30;;;;;;;12.43;79.18;98678.28;4974811;28;20051;-67
2022/09/17 04:00:52;;;;;;;0.40;0.40;;;;;;;12.39;79.57;98673.28;4975113;28;20513;-69
2022/09/17 04:03:21;;;;;;;0.30;0.30;;;;;;;12.37;79.45;98672.47;4974759;28;20130;-69
2022/09/17 04:05:50;;;;;;;0.50;0.50;;;;;;;12.39;79.98;98686.06;4957734;28;20146;-69
2022/09/17 04:08:19;;;;;;;0.33;0.33;;;;;;;12.44;79.95;98697.03;4974721;28;20796;-68
2022/09/17 04:10:49;;;;;;;0.35;0.35;;;;;;;12.41;79.78;98692.00;4975142;28;20069;-68
2022/09/17 04:13:18;;;;;;;0.40;0.40;;;;;;;12.40;79.73;98691.19;4974982;28;20126;-68
2022/09/17 04:15:47;;;;;;;0.32;0.32;;;;;;;12.34;79.68;98695.56;4974699;28;20043;-68
2022/09/17 04:18:17;;;;;;;0.50;0.50;;;;;;;12.21;79.51;98694.19;4975275;28;20507;-68
2022/09/17 04:20:46;;;;;;;1.95;1.15;;;;;;;12.15;80.04;98689.22;4974700;28;20043;-69
2022/09/17 04:23:14;;;;;;;0.30;0.30;;;;;;;12.21;80.25;98691.63;4974959;28;20047;-68
2022/09/17 04:25:43;;;;;;;0.43;0.43;;;;;;;12.23;80.19;98688.16;4975263;28;20126;-67
2022/09/17 04:28:13;;;;;;;0.32;0.32;;;;;;;12.18;80.31;98678.91;4975103;28;20046;-68
2022/09/17 04:30:42;;;;;;;0.30;0.30;;;;;;;12.08;80.38;98666.34;4974483;28;20042;-69
2022/09/17 04:33:11;;;;;;;0.60;0.57;;;;;;;11.96;80.20;98661.50;4974370;28;20049;-69
2022/09/17 04:35:40;;;;;;;0.50;0.50;;;;;;;11.84;80.27;98659.22;4974497;28;20055;-69
2022/09/17 04:38:09;;;;;;;0.73;0.70;;;;;;;11.67;80.47;98661.28;4974524;28;20050;-68
2022/09/17 04:40:38;;;;;;;;;;;;;;;11.62;80.66;98659.69;4974871;28;20043;-69
2022/09/17 04:43:08;;;;;;;0.55;0.55;;;;;;;11.54;80.59;98659.84;4958374;28;19935;-68
2022/09/17 04:45:38;;;;;;;0.55;0.55;;;;;;;11.49;80.85;98656.56;4978165;28;20042;-69
2022/09/17 04:48:07;;;;;;;0.95;0.90;;;;;;;11.43;80.91;98662.63;4977958;28;20114;-68
2022/09/17 04:50:35;;;;;;;0.60;0.60;;;;;;;11.42;81.08;98660.13;4978385;28;20061;-68
2022/09/17 04:53:04;;;;;;;0.40;0.40;;;;;;;11.53;81.06;98649.66;4978335;28;20485;-68
2022/09/17 04:55:33;;;;;;;0.40;0.40;;;;;;;11.66;81.72;98653.66;4978234;28;20492;-69
2022/09/17 04:58:02;;;;;;;0.40;0.40;;;;;;;11.83;82.13;98662.66;4977960;28;20449;-69
2022/09/17 05:00:30;;;;;;;0.50;0.50;;;;;;;11.95;82.19;98662.38;4977923;28;20137;-68
2022/09/17 05:03:01;;;;;;;1.17;1.05;;;;;;;12.08;82.05;98668.91;4977882;28;20138;-69
2022/09/17 05:05:30;;;;;;;0.52;0.52;;;;;;;12.22;82.32;98675.41;4978168;28;20047;-69
2022/09/17 05:07:58;;;;;;;0.73;0.73;;;;;;;12.30;82.14;98678.63;4978145;28;20069;-69
2022/09/17 05:10:27;;;;;;;1.40;1.30;;;;;;;12.31;82.08;98693.13;4978003;28;20053;-69
2022/09/17 05:12:56;;;;;;;0.65;0.65;;;;;;;12.33;82.09;98691.34;4978028;28;20045;-69
2022/09/17 05:15:26;;;;;;;0.52;0.52;;;;;;;12.38;82.04;98702.31;4977898;28;20405;-67
2022/09/17 05:17:55;;;;;;;1.02;0.45;;;;;;;12.45;81.76;98708.97;4977977;28;20055;-69
2022/09/17 05:20:25;;;;;;;0.77;0.75;;;;;;;12.49;81.41;98711.41;4977598;28;20043;-67
2022/09/17 05:22:54;;;;;;;0.30;0.30;;;;;;;12.55;81.40;98710.41;4977528;28;20050;-68
2022/09/17 05:25:23;;;;;;;0.65;0.65;;;;;;;12.61;81.24;98705.16;4977674;28;20557;-68
2022/09/17 05:27:52;;;;;;;0.33;0.33;;;;;;;12.66;81.29;98700.78;4977779;28;20050;-68
2022/09/17 05:30:21;;;;;;;0.73;0.73;;;;;;;12.66;81.07;98701.63;4977310;28;20054;-68
2022/09/17 05:32:59;;;;;;;0.65;0.65;;;;;;;12.76;81.22;98697.09;4977324;28;20046;-68
2022/09/17 05:35:31;;;;;;;0.52;0.50;;;;;;;12.76;80.70;98690.25;4977713;28;20051;-68
2022/09/17 05:38:00;;;;;;;0.30;0.30;;;;;;;12.74;80.50;98680.94;4977371;28;20051;-68
2022/09/17 05:40:31;;;;;;;0.40;0.40;;;;;;;12.76;80.33;98684.31;4977508;28;20412;-68
2022/09/17 05:43:01;;;;;;;0.40;0.40;;;;;;;12.77;79.77;98668.91;4977551;28;20085;-66
2022/09/17 05:45:30;;;;;;;0.47;0.47;;;;;;;12.83;79.46;98662.78;4977058;28;20053;-68
2022/09/17 05:48:01;;;;;;;0.27;0.27;;;;;;;12.94;79.09;98660.75;4956514;29;20074;-68
2022/09/17 05:50:31;;;;;;;1.17;0.77;;;;;;;13.02;79.13;98651.16;4957999;29;20294;-67
2022/09/17 05:53:05;;;;;;;0.60;0.60;;;;;;;13.12;78.88;98636.41;4957901;29;20040;-67
2022/09/17 05:55:35;;;;;;;0.70;0.70;;;;;;;13.19;78.67;98638.78;4956510;28;20070;-69
2022/09/17 05:58:11;;;;;;;0.80;0.80;;;;;;;13.24;78.82;98636.91;4957632;29;20131;-68
2022/09/17 06:00:41;;;;;;;1.30;1.00;;;;;;;13.27;78.57;98636.81;4958016;29;20368;-68
2022/09/17 06:03:12;;;;;;;0.50;0.50;;;;;;;13.37;78.07;98638.25;4958434;28;20553;-68
2022/09/17 06:05:43;;;;;;;0.30;0.30;;;;;;;13.48;77.42;98624.28;4957804;29;20146;-69
2022/09/17 06:08:11;;;;;;;0.20;0.20;;;;;;;13.60;77.36;98634.16;4957770;29;20146;-68
2022/09/17 06:10:40;;;;;;;0.93;0.57;;;;;;;13.68;76.62;98629.63;4957101;28;20046;-70
2022/09/17 06:13:08;;;;;;;0.40;0.40;;;;;;;13.78;76.46;98647.28;4957632;28;20043;-70
2022/09/17 06:15:37;;;;;;;0.40;0.40;;;;;;;13.83;75.95;98647.97;4957076;29;20039;-68
2022/09/17 06:18:05;;;;;;;0.70;0.70;;;;;;;13.89;75.83;98672.59;4957448;29;20112;-68
2022/09/17 06:20:34;;;;;;;0.30;0.30;;;;;;;13.86;75.00;98675.25;4956968;29;20051;-69
2022/09/17 06:23:04;;;;;;;0.35;0.35;;;;;;;13.86;74.69;98690.66;4956882;29;20053;-69
2022/09/17 06:25:32;;;;;;;0.38;0.38;;;;;;;13.93;74.14;98684.44;4957661;29;20049;-69
2022/09/17 06:28:03;;;;;;;0.60;0.60;;;;;;;13.92;74.42;98698.16;4957035;29;20508;-70
2022/09/17 06:30:31;;;;;;;0.43;0.43;;;;;;;13.92;74.04;98693.00;4957997;29;20043;-69
2022/09/17 06:33:01;;;;;;;0.50;0.50;;;;;;;13.92;74.60;98698.16;4957004;29;20134;-69
2022/09/17 06:35:29;;;;;;;0.68;0.68;;;;;;;13.88;74.73;98704.25;4956821;29;20814;-68
2022/09/17 06:37:58;;;;;;;0.90;0.90;;;;;;;13.85;74.79;98714.59;4955435;29;20414;-68
2022/09/17 06:40:28;;;;;;;0.47;0.47;;;;;;;13.76;75.56;98717.44;4956996;29;20047;-69
2022/09/17 06:42:58;;;;;;;0.40;0.40;;;;;;;13.76;75.73;98730.28;4956977;29;20047;-68
2022/09/17 06:45:28;;;;;;;0.60;0.57;;;;;;;13.73;75.50;98727.78;4957057;29;20048;-68
2022/09/17 06:47:57;;;;;;;0.38;0.38;;;;;;;13.74;75.60;98720.06;4966635;28;20113;-69
2022/09/17 06:50:26;;;;;;;0.50;0.50;;;;;;;13.77;75.70;98716.56;4976099;28;20093;-69
2022/09/17 06:52:55;;;;;;;0.40;0.40;;;;;;;13.82;76.13;98724.97;4976063;28;20636;-69
2022/09/17 06:55:23;;;;;;;0.60;0.60;;;;;;;13.84;75.71;98716.34;4975677;28;20135;-69
2022/09/17 06:57:54;;;;;;;0.80;0.70;;;;;;;13.88;76.02;98706.81;4975741;28;20497;-69
2022/09/17 07:00:22;;;;;;;0.52;0.52;;;;;;;13.88;76.03;98696.56;4975786;28;20074;-69
2022/09/17 07:03:01;;;;;;;0.40;0.40;;;;;;;13.95;76.29;98673.25;4975709;28;20051;-68
2022/09/17 07:05:31;;;;;;;0.52;0.52;;;;;;;13.91;76.76;98675.97;4975314;28;20054;-68
2022/09/17 07:08:02;;;;;;;0.75;0.70;;;;;;;13.98;76.75;98677.47;4975577;28;20093;-69
2022/09/17 07:10:32;;;;;;;0.43;0.43;;;;;;;14.07;76.65;98678.00;4975593;28;20050;-69
2022/09/17 07:13:02;;;;;;;0.47;0.47;;;;;;;14.11;76.93;98678.75;4975474;28;20563;-68
2022/09/17 07:15:31;;;;;;;0.30;0.30;;;;;;;14.17;76.56;98693.97;4975808;28;20085;-69
2022/09/17 07:18:01;;;;;;;1.02;1.00;;;;;;;14.25;75.85;98694.56;4975401;28;20039;-69
2022/09/17 07:20:30;;;;;;;0.30;0.30;;;;;;;14.29;75.77;98693.59;4975402;28;20058;-68
2022/09/17 07:22:59;;;;;;;0.30;0.30;;;;;;;14.34;74.96;98696.88;4975317;28;20053;-68
2022/09/17 07:25:28;;;;;;;0.50;0.50;;;;;;;14.35;74.88;98698.53;4975809;28;20163;-69
2022/09/17 07:27:56;;;;;;;0.93;0.82;;;;;;;14.41;74.43;98700.94;4975290;28;20133;-69
2022/09/17 07:30:26;;;;;;;0.50;0.50;;;;;;;14.46;74.16;98705.91;4975031;28;20049;-68
2022/09/17 07:32:55;;;;;;;0.40;0.40;;;;;;;14.53;73.63;98700.53;4975546;28;20320;-69
2022/09/17 07:35:24;;;;;;;0.40;0.40;;;;;;;14.59;73.50;98691.78;4975120;28;20043;-68
2022/09/17 07:37:53;;;;;;;0.50;0.50;;;;;;;14.57;73.02;98673.00;4975145;28;20050;-68
2022/09/17 07:40:21;;;;;;;;;;;;;;;14.60;72.38;98675.50;4975486;28;20043;-68
2022/09/17 07:42:50;;;;;;;0.50;0.50;;;;;;;14.58;71.70;98680.69;4974994;28;19921;-68
2022/09/17 07:45:19;;;;;;;0.32;0.32;;;;;;;14.58;71.74;98682.41;4975323;28;20042;-69
2022/09/17 07:47:49;;;;;;;0.40;0.40;;;;;;;14.57;71.95;98678.16;4974740;28;20061;-69
2022/09/17 07:50:18;;;;;;;0.38;0.38;;;;;;;14.54;71.44;98679.09;4975155;28;20074;-68
2022/09/17 07:52:47;;;;;;;1.52;0.57;;;;;;;14.51;71.02;98694.63;4974761;28;20053;-68
2022/09/17 07:55:16;;;;;;;0.98;0.90;;;;;;;14.50;71.49;98703.19;4974989;28;20046;-68
2022/09/17 07:57:51;;;;;;;0.30;0.30;;;;;;;14.53;71.33;98703.09;4975225;28;20039;-69
2022/09/17 08:00:20;;;;;;;0.50;0.50;;;;;;;14.49;70.76;98705.81;4975110;28;20055;-68
2022/09/17 08:02:54;;;;;;;0.40;0.40;;;;;;;14.54;70.69;98720.16;4975181;28;20055;-69
2022/09/17 08:05:24;;;;;;;0.45;0.45;;;;;;;14.54;71.12;98720.16;4975118;28;20085;-69
2022/09/17 08:07:54;;;;;;;0.70;0.70;;;;;;;14.61;70.68;98716.50;4974689;28;20062;-69
2022/09/17 08:10:22;;;;;;;;;;;;;;;14.62;70.71;98709.66;4975104;28;20038;-68
2022/09/17 08:12:55;;;;;;;0.50;0.50;;;;;;;14.69;70.50;98717.13;4974627;28;19922;-69
2022/09/17 08:15:24;;;;;;;0.40;0.40;;;;;;;14.68;69.75;98720.56;4975010;28;20046;-68
2022/09/17 08:17:55;;;;;;;0.75;0.68;;;;;;;14.73;70.19;98710.16;4975427;28;20130;-69
2022/09/17 08:20:25;;;;;;;0.70;0.70;;;;;;;14.77;70.19;98712.56;4979182;28;20054;-69
2022/09/17 08:22:59;;;;;;;0.40;0.40;;;;;;;14.85;69.91;98719.19;4978981;28;20408;-68
2022/09/17 08:25:28;;;;;;;0.38;0.38;;;;;;;14.88;70.02;98719.06;4978616;28;20055;-68
2022/09/17 08:27:57;;;;;;;0.73;0.73;;;;;;;14.89;70.28;98710.47;4978603;28;20130;-70
2022/09/17 08:30:25;;;;;;;1.60;1.42;;;;;;;14.89;69.85;98710.47;4978471;28;20567;-69
2022/09/17 08:32:57;;;;;;;0.80;0.80;;;;;;;14.88;69.85;98719.91;4979308;28;20053;-68
2022/09/17 08:35:26;;;;;;;0.88;0.80;;;;;;;14.93;69.79;98733.44;4979025;28;20049;-68
2022/09/17 08:37:55;;;;;;;0.73;0.57;;;;;;;14.97;69.26;98731.63;4978419;28;20130;-69
2022/09/17 08:40:26;;;;;;;0.70;0.70;;;;;;;14.98;68.89;98717.88;4978324;28;20047;-68
2022/09/17 08:43:01;;;;;;;0.40;0.40;;;;;;;14.91;68.16;98713.81;4978575;28;20043;-68
2022/09/17 08:45:30;;;;;;;0.30;0.30;;;;;;;14.92;68.00;98705.25;4978628;28;20121;-68
2022/09/17 08:48:05;;;;;;;0.40;0.40;;;;;;;14.91;67.98;98708.69;4978178;28;20122;-69
2022/09/17 08:50:40;;;;;;;0.50;0.50;;;;;;;14.92;68.08;98711.22;4978490;28;20054;-67
2022/09/17 08:53:23;;;;;;;0.30;0.30;;;;;;;14.93;67.59;98722.31;4978045;28;20050;-67
2022/09/17 08:55:59;;;;;;;0.47;0.47;;;;;;;14.95;66.69;98728.28;4978042;28;20054;-67
2022/09/17 08:58:45;;;;;;;1.02;0.88;;;;;;;14.88;66.22;98735.31;4977992;28;20051;-68
2022/09/17 09:01:28;;;;;;;0.70;0.70;;;;;;;14.96;66.62;98729.94;4978205;28;20047;-67
2022/09/17 09:04:20;;;;;;;0.40;0.40;;;;;;;14.92;66.26;98736.91;4977913;28;20057;-68
2022/09/17 09:06:52;;;;;;;0.47;0.47;;;;;;;14.90;66.11;98732.72;4977869;28;20501;-68
2022/09/17 09:09:26;;;;;;;0.65;0.65;;;;;;;14.91;66.10;98731.81;4977770;28;20050;-68
2022/09/17 09:12:03;;;;;;;1.38;0.93;;;;;;;14.90;65.78;98732.72;4977670;28;20074;-67
2022/09/17 09:14:37;;;;;;;0.35;0.35;;;;;;;14.94;65.64;98739.44;4977723;28;20105;-66
2022/09/17 09:17:09;;;;;;;1.00;0.60;;;;;;;14.91;65.53;98744.66;4978087;28;20065;-68
2022/09/17 09:19:44;;;;;;;0.90;0.75;;;;;;;14.92;65.08;98741.22;4977898;28;20086;-68
2022/09/17 09:22:27;;;;;;;0.40;0.40;;;;;;;14.96;65.66;98738.50;4977663;28;20051;-68
2022/09/17 09:25:10;;;;;;;0.40;0.40;;;;;;;14.93;64.92;98738.59;4977832;28;20512;-68
2022/09/17 09:27:45;;;;;;;1.08;0.98;;;;;;;14.94;65.37;98739.44;4977516;28;20047;-68
2022/09/17 09:30:22;;;;;;;0.47;0.47;;;;;;;14.97;66.35;98739.34;4977176;28;20047;-68
2022/09/17 09:33:00;;;;;;;0.47;0.47;;;;;;;14.98;66.86;98746.13;4977393;28;20050;-69
2022/09/17 09:35:33;;;;;;;0.50;0.50;;;;;;;14.95;67.47;98747.06;4977323;28;20094;-69
2022/09/17 09:38:12;;;;;;;0.50;0.50;;;;;;;14.97;68.07;98747.03;4977641;28;20073;-69
2022/09/17 09:40:46;;;;;;;0.55;0.55;;;;;;;14.96;67.69;98737.63;4977530;28;20054;-68
2022/09/17 09:43:20;;;;;;;0.30;0.30;;;;;;;14.96;68.04;98738.50;4977360;28;20076;-68
2022/09/17 09:46:15;;;;;;;0.68;0.68;;;;;;;15.01;68.77;98735.75;4977238;28;20043;-68
2022/09/17 09:48:52;;;;;;;0.73;0.68;;;;;;;15.05;68.74;98745.03;4961421;28;20054;-68
2022/09/17 09:51:33;;;;;;;0.40;0.40;;;;;;;15.06;67.91;98744.16;4977065;28;20520;-67
2022/09/17 09:54:19;;;;;;;0.47;0.47;;;;;;;15.11;67.64;98747.41;4976928;28;20055;-67
2022/09/17 09:56:56;;;;;;;0.47;0.47;;;;;;;15.17;67.25;98753.19;4977021;28;20050;-68
2022/09/17 09:59:25;;;;;;;0.40;0.40;;;;;;;15.23;67.32;98752.13;4960281;28;20058;-67
2022/09/17 10:01:53;;;;;;;0.68;0.68;;;;;;;15.24;66.53;98759.78;4977207;28;20137;-68
2022/09/17 10:04:24;;;;;;;0.40;0.40;;;;;;;15.29;66.30;98762.19;4976781;28;20047;-68
2022/09/17 10:07:01;;;;;;;3.17;1.20;;;;;;;15.29;66.02;98749.34;4977420;28;20050;-68
2022/09/17 10:09:31;;;;;;;0.77;0.73;;;;;;;15.40;65.54;98754.97;4976770;28;20046;-68
2022/09/17 10:12:14;;;;;;;0.50;0.50;;;;;;;15.42;65.14;98753.19;4976965;28;20405;-69
2022/09/17 10:14:44;;;;;;;0.30;0.30;;;;;;;15.49;65.16;98746.94;4977512;28;20058;-68
2022/09/17 10:17:20;;;;;;;1.45;1.35;;;;;;;15.59;65.06;98750.03;4959580;28;20141;-69
2022/09/17 10:20:11;;;;;;;0.52;0.52;;;;;;;15.63;63.97;98751.59;4976915;28;20069;-68
2022/09/17 10:22:44;;;;;;;0.60;0.60;;;;;;;15.62;63.57;98757.66;4976535;28;20047;-68
2022/09/17 10:25:27;;;;;;;0.40;0.40;;;;;;;15.64;63.85;98756.72;4976444;28;20059;-68
2022/09/17 10:27:59;;;;;;;0.32;0.32;;;;;;;15.63;64.05;98760.16;4976401;28;20047;-67
2022/09/17 10:30:28;;;;;;;0.50;0.50;;;;;;;15.66;64.33;98757.47;4976313;28;20051;-69
2022/09/17 10:33:17;;;;;;;0.55;0.55;;;;;;;15.70;64.00;98753.91;4976355;28;20043;-67
2022/09/17 10:36:02;;;;;;;0.83;0.83;;;;;;;15.66;63.96;98757.47;4976810;28;20055;-68
2022/09/17 10:38:35;;;;;;;0.50;0.50;;;;;;;15.68;63.61;98750.53;4979702;28;20292;-68
2022/09/17 10:41:13;;;;;;;0.50;0.50;;;;;;;15.70;63.56;98748.75;4975771;28;20441;-68
2022/09/17 10:43:43;;;;;;;0.55;0.55;;;;;;;15.68;63.47;98734.25;4976107;28;20526;-67
2022/09/17 10:46:16;;;;;;;0.60;0.57;;;;;;;15.65;62.92;98724.94;4975887;28;20061;-68
2022/09/17 10:48:54;;;;;;;0.50;0.50;;;;;;;15.70;62.86;98725.59;4975718;28;20437;-68
2022/09/17 10:51:24;;;;;;;0.43;0.43;;;;;;;15.69;62.84;98746.25;4976001;28;20057;-68
2022/09/17 10:54:22;;;;;;;0.52;0.52;;;;;;;15.65;62.64;98755.78;4975789;28;20501;-69
2022/09/17 10:56:57;;;;;;;0.60;0.60;;;;;;;15.66;62.65;98749.78;4969067;28;20039;-68
2022/09/17 10:59:46;;;;;;;0.52;0.52;;;;;;;15.71;62.83;98745.28;4975715;28;20051;-67
2022/09/17 11:02:46;;;;;;;0.40;0.40;;;;;;;15.80;62.62;98750.09;4975850;28;20528;-68
2022/09/17 11:05:41;;;;;;;0.40;0.40;;;;;;;15.85;62.10;98750.78;4975926;28;20041;-68
2022/09/17 11:08:17;;;;;;;0.50;0.50;;;;;;;15.90;61.69;98741.16;4975916;28;20042;-67
2022/09/17 11:10:54;;;;;;;1.20;1.05;;;;;;;15.95;61.58;98723.81;4975879;28;20093;-67
2022/09/17 11:13:33;;;;;;;2.08;0.75;;;;;;;15.96;60.59;98715.19;4975999;28;20473;-68
2022/09/17 11:16:32;;;;;;;0.30;0.30;;;;;;;15.96;59.49;98702.31;4975469;28;20146;-67
2022/09/17 11:19:12;;;;;;;0.45;0.45;;;;;;;15.99;58.75;98694.47;4975674;28;20134;-67
2022/09/17 11:21:45;;;;;;;0.73;0.73;;;;;;;16.14;58.65;98692.19;4975759;28;20047;-67
2022/09/17 11:24:34;;;;;;;0.52;0.52;;;;;;;16.30;58.74;98698.41;4975831;28;20042;-68
2022/09/17 11:27:14;;;;;;;0.40;0.40;;;;;;;16.42;58.37;98695.34;4975392;28;20394;-69
2022/09/17 11:30:02;;;;;;;0.60;0.60;;;;;;;16.52;58.51;98699.28;4975233;28;20082;-68
2022/09/17 11:32:49;;;;;;;0.60;0.60;;;;;;;16.52;58.15;98696.69;4975182;28;20043;-67
2022/09/17 11:35:23;;;;;;;0.52;0.52;;;;;;;16.62;58.85;98700.59;4975311;28;20051;-67
2022/09/17 11:37:57;;;;;;;0.40;0.40;;;;;;;16.64;57.92;98683.31;4975156;28;20051;-68
2022/09/17 11:40:37;;;;;;;0.50;0.50;;;;;;;16.73;57.76;98685.50;4975725;28;20042;-68
2022/09/17 11:43:15;;;;;;;0.40;0.40;;;;;;;16.71;58.07;98677.00;4975200;28;20085;-69
2022/09/17 11:45:55;;;;;;;0.50;0.50;;;;;;;16.75;58.46;98668.25;4975288;28;20057;-69
2022/09/17 11:48:31;;;;;;;0.70;0.70;;;;;;;16.76;58.37;98667.34;4974882;28;20390;-68
2022/09/17 11:51:07;;;;;;;0.30;0.30;;;;;;;16.79;57.77;98672.38;4974900;28;20045;-67
2022/09/17 11:53:41;;;;;;;1.10;1.00;;;;;;;16.61;57.01;98673.13;4975404;28;20125;-68
2022/09/17 11:56:19;;;;;;;1.08;0.88;;;;;;;16.52;57.74;98673.50;4974941;28;20052;-66
2022/09/17 11:58:52;;;;;;;0.70;0.60;;;;;;;16.46;57.46;98663.44;4975243;28;20051;-67
2022/09/17 12:01:31;;;;;;;0.40;0.40;;;;;;;16.42;58.08;98667.03;4975244;28;20058;-67
2022/09/17 12:04:05;;;;;;;2.15;0.95;;;;;;;16.32;58.90;98660.56;4974969;28;20043;-67